Time;durP1;ratioP1;P1;durP2;ratioP2;P2;SDS_P1;SDS_P2;PMS_P1;PMS_P2;Temp;Humidity;BMP_temperature;BMP_pressure;BME280_temperature;BME280_humidity;BME280_pressure;Samples;Min_cycle;Max_cycle;Signal;HPM_P1;HPM_P2
2021/05/14 00:00:00;;;;;;;3.05;2.75;;;;;;;8.55;100;94465.09;;;;
2021/05/14 00:01:00;;;;;;;3.05;2.75;;;;;;;8.55;100;94465.09;;;;
2021/05/14 00:02:03;;;;;;;3.05;2.75;;;;;;;8.55;100;94465.09;;;;
2021/05/14 00:03:04;;;;;;;3.05;2.75;;;;;;;8.55;100;94465.09;;;;
2021/05/14 00:04:05;;;;;;;3.05;2.75;;;;;;;8.55;100;94465.09;;;;
2021/05/14 00:05:05;;;;;;;4.35;2.750001;;;;;;;8.49;100;94461.63;;;;
2021/05/14 00:06:08;;;;;;;4.35;2.750001;;;;;;;8.49;100;94461.63;;;;
2021/05/14 00:07:09;;;;;;;4.35;2.750001;;;;;;;8.49;100;94461.63;;;;
2021/05/14 00:08:09;;;;;;;4.35;2.750001;;;;;;;8.49;100;94461.63;;;;
2021/05/14 00:09:10;;;;;;;4.35;2.750001;;;;;;;8.49;100;94461.63;;;;
2021/05/14 00:10:10;;;;;;;4.35;2.750001;;;;;;;8.49;100;94461.63;;;;
2021/05/14 00:11:11;;;;;;;4.35;2.750001;;;;;;;8.49;100;94461.63;;;;
2021/05/14 00:12:12;;;;;;;4.35;2.750001;;;;;;;8.49;100;94461.63;;;;
2021/05/14 00:13:12;;;;;;;4.35;2.750001;;;;;;;8.49;100;94461.63;;;;
2021/05/14 00:14:13;;;;;;;4.35;2.750001;;;;;;;8.49;100;94461.63;;;;
2021/05/14 00:15:15;;;;;;;4.35;2.750001;;;;;;;8.49;100;94461.63;;;;
2021/05/14 00:16:16;;;;;;;4.35;2.9;;;;;;;8.41;100;94457.05;;;;
2021/05/14 00:17:16;;;;;;;4.35;2.9;;;;;;;8.41;100;94457.05;;;;
2021/05/14 00:18:17;;;;;;;4.35;2.9;;;;;;;8.41;100;94457.05;;;;
2021/05/14 00:19:17;;;;;;;4.35;2.9;;;;;;;8.41;100;94457.05;;;;
2021/05/14 00:20:18;;;;;;;4.35;2.9;;;;;;;8.41;100;94457.05;;;;
2021/05/14 00:21:19;;;;;;;4.35;2.9;;;;;;;8.41;100;94457.05;;;;
2021/05/14 00:22:19;;;;;;;4.35;2.9;;;;;;;8.41;100;94457.05;;;;
2021/05/14 00:23:20;;;;;;;4.35;2.9;;;;;;;8.41;100;94457.05;;;;
2021/05/14 00:24:20;;;;;;;4.35;2.9;;;;;;;8.41;100;94457.05;;;;
2021/05/14 00:25:21;;;;;;;4.35;2.9;;;;;;;8.41;100;94457.05;;;;
2021/05/14 00:26:21;;;;;;;3.900001;2.75;;;;;;;8.33;100;94459.74;;;;
2021/05/14 00:27:22;;;;;;;3.900001;2.75;;;;;;;8.33;100;94459.74;;;;
2021/05/14 00:28:23;;;;;;;3.900001;2.75;;;;;;;8.33;100;94459.74;;;;
2021/05/14 00:29:23;;;;;;;3.900001;2.75;;;;;;;8.33;100;94459.74;;;;
2021/05/14 00:30:24;;;;;;;3.900001;2.75;;;;;;;8.33;100;94459.74;;;;
2021/05/14 00:31:24;;;;;;;3.900001;2.75;;;;;;;8.33;100;94459.74;;;;
2021/05/14 00:32:25;;;;;;;3.900001;2.75;;;;;;;8.33;100;94459.74;;;;
2021/05/14 00:33:25;;;;;;;3.900001;2.75;;;;;;;8.33;100;94459.74;;;;
2021/05/14 00:34:26;;;;;;;3.900001;2.75;;;;;;;8.33;100;94459.74;;;;
2021/05/14 00:35:27;;;;;;;3.900001;2.75;;;;;;;8.33;100;94459.74;;;;
2021/05/14 00:36:27;;;;;;;3.900001;2.75;;;;;;;8.33;100;94459.74;;;;
2021/05/14 00:37:28;;;;;;;4.85;2.8;;;;;;;8.24;100;94456.59;;;;
2021/05/14 00:38:28;;;;;;;4.85;2.8;;;;;;;8.24;100;94456.59;;;;
2021/05/14 00:39:29;;;;;;;4.85;2.8;;;;;;;8.24;100;94456.59;;;;
2021/05/14 00:40:29;;;;;;;4.85;2.8;;;;;;;8.24;100;94456.59;;;;
2021/05/14 00:41:30;;;;;;;4.85;2.8;;;;;;;8.24;100;94456.59;;;;
2021/05/14 00:42:30;;;;;;;4.85;2.8;;;;;;;8.24;100;94456.59;;;;
2021/05/14 00:43:31;;;;;;;4.85;2.8;;;;;;;8.24;100;94456.59;;;;
2021/05/14 00:44:32;;;;;;;4.85;2.8;;;;;;;8.24;100;94456.59;;;;
2021/05/14 00:45:35;;;;;;;4.85;2.8;;;;;;;8.24;100;94456.59;;;;
2021/05/14 00:46:35;;;;;;;4.85;2.8;;;;;;;8.24;100;94456.59;;;;
2021/05/14 00:47:36;;;;;;;3.9;2.7;;;;;;;8.18;100;94457.14;;;;
2021/05/14 00:48:38;;;;;;;3.9;2.7;;;;;;;8.18;100;94457.14;;;;
2021/05/14 00:49:39;;;;;;;3.9;2.7;;;;;;;8.18;100;94457.14;;;;
2021/05/14 00:50:40;;;;;;;3.9;2.7;;;;;;;8.18;100;94457.14;;;;
2021/05/14 00:51:40;;;;;;;3.9;2.7;;;;;;;8.18;100;94457.14;;;;
2021/05/14 00:52:41;;;;;;;3.9;2.7;;;;;;;8.18;100;94457.14;;;;
2021/05/14 00:53:41;;;;;;;3.9;2.7;;;;;;;8.18;100;94457.14;;;;
2021/05/14 00:54:42;;;;;;;3.9;2.7;;;;;;;8.18;100;94457.14;;;;
2021/05/14 00:55:44;;;;;;;3.9;2.7;;;;;;;8.18;100;94457.14;;;;
2021/05/14 00:56:44;;;;;;;3.9;2.7;;;;;;;8.18;100;94457.14;;;;
2021/05/14 00:57:45;;;;;;;3.9;2.7;;;;;;;8.18;100;94457.14;;;;
2021/05/14 00:58:45;;;;;;;3.25;2.7;;;;;;;8.09;100;94458.17;;;;
2021/05/14 00:59:46;;;;;;;3.25;2.7;;;;;;;8.09;100;94458.17;;;;
2021/05/14 01:00:48;;;;;;;3.25;2.7;;;;;;;8.09;100;94458.17;;;;
2021/05/14 01:01:48;;;;;;;3.25;2.7;;;;;;;8.09;100;94458.17;;;;
2021/05/14 01:02:51;;;;;;;3.25;2.7;;;;;;;8.09;100;94458.17;;;;
2021/05/14 01:03:52;;;;;;;3.25;2.7;;;;;;;8.09;100;94458.17;;;;
2021/05/14 01:04:53;;;;;;;3.25;2.7;;;;;;;8.09;100;94458.17;;;;
2021/05/14 01:05:53;;;;;;;3.25;2.7;;;;;;;8.09;100;94458.17;;;;
2021/05/14 01:06:54;;;;;;;3.25;2.7;;;;;;;8.09;100;94458.17;;;;
2021/05/14 01:07:55;;;;;;;3.25;2.7;;;;;;;8.09;100;94458.17;;;;
2021/05/14 01:08:55;;;;;;;2.8;2.6;;;;;;;7.96;100;94464.24;;;;
2021/05/14 01:09:57;;;;;;;2.8;2.6;;;;;;;7.96;100;94464.24;;;;
2021/05/14 01:10:59;;;;;;;2.8;2.6;;;;;;;7.96;100;94464.24;;;;
2021/05/14 01:12:00;;;;;;;2.8;2.6;;;;;;;7.96;100;94464.24;;;;
2021/05/14 01:13:01;;;;;;;2.8;2.6;;;;;;;7.96;100;94464.24;;;;
2021/05/14 01:14:02;;;;;;;2.8;2.6;;;;;;;7.96;100;94464.24;;;;
2021/05/14 01:15:03;;;;;;;2.8;2.6;;;;;;;7.96;100;94464.24;;;;
2021/05/14 01:16:05;;;;;;;2.8;2.6;;;;;;;7.96;100;94464.24;;;;
2021/05/14 01:17:06;;;;;;;2.8;2.6;;;;;;;7.96;100;94464.24;;;;
2021/05/14 01:18:07;;;;;;;2.8;2.6;;;;;;;7.96;100;94464.24;;;;
2021/05/14 01:19:08;;;;;;;2.8;2.6;;;;;;;7.96;100;94464.24;;;;
2021/05/14 01:20:09;;;;;;;2.4;2.1;;;;;;;7.78;100;94467;;;;
2021/05/14 01:21:11;;;;;;;2.4;2.1;;;;;;;7.78;100;94467;;;;
2021/05/14 01:22:11;;;;;;;2.4;2.1;;;;;;;7.78;100;94467;;;;
2021/05/14 01:23:13;;;;;;;2.4;2.1;;;;;;;7.78;100;94467;;;;
2021/05/14 01:24:14;;;;;;;2.4;2.1;;;;;;;7.78;100;94467;;;;
2021/05/14 01:25:14;;;;;;;2.4;2.1;;;;;;;7.78;100;94467;;;;
2021/05/14 01:26:15;;;;;;;2.4;2.1;;;;;;;7.78;100;94467;;;;
2021/05/14 01:27:19;;;;;;;2.4;2.1;;;;;;;7.78;100;94467;;;;
2021/05/14 01:28:19;;;;;;;2.4;2.1;;;;;;;7.78;100;94467;;;;
2021/05/14 01:29:20;;;;;;;2.4;2.1;;;;;;;7.78;100;94467;;;;
2021/05/14 01:30:20;;;;;;;2.9;2.1;;;;;;;7.77;100;94459.56;;;;
2021/05/14 01:31:22;;;;;;;2.9;2.1;;;;;;;7.77;100;94459.56;;;;
2021/05/14 01:32:23;;;;;;;2.9;2.1;;;;;;;7.77;100;94459.56;;;;
2021/05/14 01:33:24;;;;;;;2.9;2.1;;;;;;;7.77;100;94459.56;;;;
2021/05/14 01:34:24;;;;;;;2.9;2.1;;;;;;;7.77;100;94459.56;;;;
2021/05/14 01:35:25;;;;;;;2.9;2.1;;;;;;;7.77;100;94459.56;;;;
2021/05/14 01:36:25;;;;;;;2.9;2.1;;;;;;;7.77;100;94459.56;;;;
2021/05/14 01:37:26;;;;;;;2.9;2.1;;;;;;;7.77;100;94459.56;;;;
2021/05/14 01:38:27;;;;;;;2.9;2.1;;;;;;;7.77;100;94459.56;;;;
2021/05/14 01:39:27;;;;;;;2.9;2.1;;;;;;;7.77;100;94459.56;;;;
2021/05/14 01:40:28;;;;;;;2.9;2.1;;;;;;;7.77;100;94459.56;;;;
2021/05/14 01:41:29;;;;;;;5.550001;2.4;;;;;;;7.69;100;94453.23;;;;
2021/05/14 01:42:29;;;;;;;5.550001;2.4;;;;;;;7.69;100;94453.23;;;;
2021/05/14 01:43:30;;;;;;;5.550001;2.4;;;;;;;7.69;100;94453.23;;;;
2021/05/14 01:44:30;;;;;;;5.550001;2.4;;;;;;;7.69;100;94453.23;;;;
2021/05/14 01:45:31;;;;;;;5.550001;2.4;;;;;;;7.69;100;94453.23;;;;
2021/05/14 01:46:32;;;;;;;5.550001;2.4;;;;;;;7.69;100;94453.23;;;;
2021/05/14 01:47:33;;;;;;;5.550001;2.4;;;;;;;7.69;100;94453.23;;;;
2021/05/14 01:48:33;;;;;;;5.550001;2.4;;;;;;;7.69;100;94453.23;;;;
2021/05/14 01:49:34;;;;;;;5.550001;2.4;;;;;;;7.69;100;94453.23;;;;
2021/05/14 01:50:35;;;;;;;5.550001;2.4;;;;;;;7.69;100;94453.23;;;;
2021/05/14 01:51:36;;;;;;;3.4;2.05;;;;;;;7.4;100;94455.06;;;;
2021/05/14 01:52:36;;;;;;;3.4;2.05;;;;;;;7.4;100;94455.06;;;;
2021/05/14 01:53:37;;;;;;;3.4;2.05;;;;;;;7.4;100;94455.06;;;;
2021/05/14 01:54:37;;;;;;;3.4;2.05;;;;;;;7.4;100;94455.06;;;;
2021/05/14 01:55:38;;;;;;;3.4;2.05;;;;;;;7.4;100;94455.06;;;;
2021/05/14 01:56:39;;;;;;;3.4;2.05;;;;;;;7.4;100;94455.06;;;;
2021/05/14 01:57:44;;;;;;;3.4;2.05;;;;;;;7.4;100;94455.06;;;;
2021/05/14 01:58:44;;;;;;;3.4;2.05;;;;;;;7.4;100;94455.06;;;;
2021/05/14 01:59:45;;;;;;;3.4;2.05;;;;;;;7.4;100;94455.06;;;;
2021/05/14 02:00:46;;;;;;;3.4;2.05;;;;;;;7.4;100;94455.06;;;;
2021/05/14 02:01:46;;;;;;;3.4;2.05;;;;;;;7.4;100;94455.06;;;;
2021/05/14 02:02:47;;;;;;;2.299999;2.1;;;;;;;7.01;100;94446.95;;;;
2021/05/14 02:03:47;;;;;;;2.299999;2.1;;;;;;;7.01;100;94446.95;;;;
2021/05/14 02:04:48;;;;;;;2.299999;2.1;;;;;;;7.01;100;94446.95;;;;
2021/05/14 02:05:49;;;;;;;2.299999;2.1;;;;;;;7.01;100;94446.95;;;;
2021/05/14 02:06:49;;;;;;;2.299999;2.1;;;;;;;7.01;100;94446.95;;;;
2021/05/14 02:07:50;;;;;;;2.299999;2.1;;;;;;;7.01;100;94446.95;;;;
2021/05/14 02:08:51;;;;;;;2.299999;2.1;;;;;;;7.01;100;94446.95;;;;
2021/05/14 02:09:52;;;;;;;2.299999;2.1;;;;;;;7.01;100;94446.95;;;;
2021/05/14 02:10:53;;;;;;;2.299999;2.1;;;;;;;7.01;100;94446.95;;;;
2021/05/14 02:11:53;;;;;;;2.299999;2.1;;;;;;;7.01;100;94446.95;;;;
2021/05/14 02:12:54;;;;;;;3.2;2.15;;;;;;;6.63;100;94454.52;;;;
2021/05/14 02:13:54;;;;;;;3.2;2.15;;;;;;;6.63;100;94454.52;;;;
2021/05/14 02:14:55;;;;;;;3.2;2.15;;;;;;;6.63;100;94454.52;;;;
2021/05/14 02:15:56;;;;;;;3.2;2.15;;;;;;;6.63;100;94454.52;;;;
2021/05/14 02:16:56;;;;;;;3.2;2.15;;;;;;;6.63;100;94454.52;;;;
2021/05/14 02:17:57;;;;;;;3.2;2.15;;;;;;;6.63;100;94454.52;;;;
2021/05/14 02:18:57;;;;;;;3.2;2.15;;;;;;;6.63;100;94454.52;;;;
2021/05/14 02:19:58;;;;;;;3.2;2.15;;;;;;;6.63;100;94454.52;;;;
2021/05/14 02:20:58;;;;;;;3.2;2.15;;;;;;;6.63;100;94454.52;;;;
2021/05/14 02:21:59;;;;;;;3.2;2.15;;;;;;;6.63;100;94454.52;;;;
2021/05/14 02:23:00;;;;;;;3.2;2.15;;;;;;;6.63;100;94454.52;;;;
2021/05/14 02:24:00;;;;;;;2.1;1.9;;;;;;;6.31;100;94459.9;;;;
2021/05/14 02:25:01;;;;;;;2.1;1.9;;;;;;;6.31;100;94459.9;;;;
2021/05/14 02:26:03;;;;;;;2.1;1.9;;;;;;;6.31;100;94459.9;;;;
2021/05/14 02:27:04;;;;;;;2.1;1.9;;;;;;;6.31;100;94459.9;;;;
2021/05/14 02:28:07;;;;;;;2.1;1.9;;;;;;;6.31;100;94459.9;;;;
2021/05/14 02:29:07;;;;;;;2.1;1.9;;;;;;;6.31;100;94459.9;;;;
2021/05/14 02:30:08;;;;;;;2.1;1.9;;;;;;;6.31;100;94459.9;;;;
2021/05/14 02:31:10;;;;;;;2.1;1.9;;;;;;;6.31;100;94459.9;;;;
2021/05/14 02:32:10;;;;;;;2.1;1.9;;;;;;;6.31;100;94459.9;;;;
2021/05/14 02:33:11;;;;;;;2.1;1.9;;;;;;;6.31;100;94459.9;;;;
2021/05/14 02:34:11;;;;;;;3.2;2.4;;;;;;;6.01;100;94463.53;;;;
2021/05/14 02:35:12;;;;;;;3.2;2.4;;;;;;;6.01;100;94463.53;;;;
2021/05/14 02:36:13;;;;;;;3.2;2.4;;;;;;;6.01;100;94463.53;;;;
2021/05/14 02:37:14;;;;;;;3.2;2.4;;;;;;;6.01;100;94463.53;;;;
2021/05/14 02:38:15;;;;;;;3.2;2.4;;;;;;;6.01;100;94463.53;;;;
2021/05/14 02:39:16;;;;;;;3.2;2.4;;;;;;;6.01;100;94463.53;;;;
2021/05/14 02:40:16;;;;;;;3.2;2.4;;;;;;;6.01;100;94463.53;;;;
2021/05/14 02:41:17;;;;;;;3.2;2.4;;;;;;;6.01;100;94463.53;;;;
2021/05/14 02:42:18;;;;;;;3.2;2.4;;;;;;;6.01;100;94463.53;;;;
2021/05/14 02:43:18;;;;;;;3.2;2.4;;;;;;;6.01;100;94463.53;;;;
2021/05/14 02:44:19;;;;;;;3.2;2.4;;;;;;;6.01;100;94463.53;;;;
2021/05/14 02:45:20;;;;;;;3.4;2.4;;;;;;;5.75;100;94457.59;;;;
2021/05/14 02:46:21;;;;;;;3.4;2.4;;;;;;;5.75;100;94457.59;;;;
2021/05/14 02:47:21;;;;;;;3.4;2.4;;;;;;;5.75;100;94457.59;;;;
2021/05/14 02:48:22;;;;;;;3.4;2.4;;;;;;;5.75;100;94457.59;;;;
2021/05/14 02:49:23;;;;;;;3.4;2.4;;;;;;;5.75;100;94457.59;;;;
2021/05/14 02:50:24;;;;;;;3.4;2.4;;;;;;;5.75;100;94457.59;;;;
2021/05/14 02:51:25;;;;;;;3.4;2.4;;;;;;;5.75;100;94457.59;;;;
2021/05/14 02:52:25;;;;;;;3.4;2.4;;;;;;;5.75;100;94457.59;;;;
2021/05/14 02:53:26;;;;;;;3.4;2.4;;;;;;;5.75;100;94457.59;;;;
2021/05/14 02:54:27;;;;;;;3.4;2.4;;;;;;;5.75;100;94457.59;;;;
2021/05/14 02:55:28;;;;;;;3.3;2.5;;;;;;;5.49;100;94452.14;;;;
2021/05/14 02:56:29;;;;;;;3.3;2.5;;;;;;;5.49;100;94452.14;;;;
2021/05/14 02:57:30;;;;;;;3.3;2.5;;;;;;;5.49;100;94452.14;;;;
2021/05/14 02:58:31;;;;;;;3.3;2.5;;;;;;;5.49;100;94452.14;;;;
2021/05/14 02:59:31;;;;;;;3.3;2.5;;;;;;;5.49;100;94452.14;;;;
2021/05/14 03:00:32;;;;;;;3.3;2.5;;;;;;;5.49;100;94452.14;;;;
2021/05/14 03:01:32;;;;;;;3.3;2.5;;;;;;;5.49;100;94452.14;;;;
2021/05/14 03:02:33;;;;;;;3.3;2.5;;;;;;;5.49;100;94452.14;;;;
2021/05/14 03:03:33;;;;;;;3.3;2.5;;;;;;;5.49;100;94452.14;;;;
2021/05/14 03:04:34;;;;;;;3.3;2.5;;;;;;;5.49;100;94452.14;;;;
2021/05/14 03:05:34;;;;;;;3.3;2.5;;;;;;;5.49;100;94452.14;;;;
2021/05/14 03:06:35;;;;;;;2.7;2.3;;;;;;;5.31;100;94454.42;;;;
2021/05/14 03:07:36;;;;;;;2.7;2.3;;;;;;;5.31;100;94454.42;;;;
2021/05/14 03:08:37;;;;;;;2.7;2.3;;;;;;;5.31;100;94454.42;;;;
2021/05/14 03:09:37;;;;;;;2.7;2.3;;;;;;;5.31;100;94454.42;;;;
2021/05/14 03:10:38;;;;;;;2.7;2.3;;;;;;;5.31;100;94454.42;;;;
2021/05/14 03:11:38;;;;;;;2.7;2.3;;;;;;;5.31;100;94454.42;;;;
2021/05/14 03:12:39;;;;;;;2.7;2.3;;;;;;;5.31;100;94454.42;;;;
2021/05/14 03:13:39;;;;;;;2.7;2.3;;;;;;;5.31;100;94454.42;;;;
2021/05/14 03:14:40;;;;;;;2.7;2.3;;;;;;;5.31;100;94454.42;;;;
2021/05/14 03:15:41;;;;;;;2.7;2.3;;;;;;;5.31;100;94454.42;;;;
2021/05/14 03:16:41;;;;;;;3.55;2.45;;;;;;;5.19;100;94459.3;;;;
2021/05/14 03:17:42;;;;;;;3.55;2.45;;;;;;;5.19;100;94459.3;;;;
2021/05/14 03:18:42;;;;;;;3.55;2.45;;;;;;;5.19;100;94459.3;;;;
2021/05/14 03:19:43;;;;;;;3.55;2.45;;;;;;;5.19;100;94459.3;;;;
2021/05/14 03:20:43;;;;;;;3.55;2.45;;;;;;;5.19;100;94459.3;;;;
2021/05/14 03:21:44;;;;;;;3.55;2.45;;;;;;;5.19;100;94459.3;;;;
2021/05/14 03:22:44;;;;;;;3.55;2.45;;;;;;;5.19;100;94459.3;;;;
2021/05/14 03:23:45;;;;;;;3.55;2.45;;;;;;;5.19;100;94459.3;;;;
2021/05/14 03:24:46;;;;;;;3.55;2.45;;;;;;;5.19;100;94459.3;;;;
2021/05/14 03:25:46;;;;;;;3.55;2.45;;;;;;;5.19;100;94459.3;;;;
2021/05/14 03:26:49;;;;;;;3.55;2.45;;;;;;;5.19;100;94459.3;;;;
2021/05/14 03:27:49;;;;;;;2.7;2.4;;;;;;;5.06;100;94461.19;;;;
2021/05/14 03:28:50;;;;;;;2.7;2.4;;;;;;;5.06;100;94461.19;;;;
2021/05/14 03:29:51;;;;;;;2.7;2.4;;;;;;;5.06;100;94461.19;;;;
2021/05/14 03:30:52;;;;;;;2.7;2.4;;;;;;;5.06;100;94461.19;;;;
2021/05/14 03:31:52;;;;;;;2.7;2.4;;;;;;;5.06;100;94461.19;;;;
2021/05/14 03:32:53;;;;;;;2.7;2.4;;;;;;;5.06;100;94461.19;;;;
2021/05/14 03:33:53;;;;;;;2.7;2.4;;;;;;;5.06;100;94461.19;;;;
2021/05/14 03:34:54;;;;;;;2.7;2.4;;;;;;;5.06;100;94461.19;;;;
2021/05/14 03:35:54;;;;;;;2.7;2.4;;;;;;;5.06;100;94461.19;;;;
2021/05/14 03:36:55;;;;;;;2.7;2.4;;;;;;;5.06;100;94461.19;;;;
2021/05/14 03:37:55;;;;;;;2.7;2.4;;;;;;;5.06;100;94461.19;;;;
2021/05/14 03:38:57;;;;;;;4.9;2.8;;;;;;;4.98;100;94457.48;;;;
2021/05/14 03:40:03;;;;;;;4.9;2.8;;;;;;;4.98;100;94457.48;;;;
2021/05/14 03:41:18;;;;;;;4.9;2.8;;;;;;;4.98;100;94457.48;;;;
2021/05/14 03:42:23;;;;;;;4.9;2.8;;;;;;;4.98;100;94457.48;;;;
2021/05/14 03:43:23;;;;;;;4.9;2.8;;;;;;;4.98;100;94457.48;;;;
2021/05/14 03:44:24;;;;;;;4.9;2.8;;;;;;;4.98;100;94457.48;;;;
2021/05/14 03:45:24;;;;;;;4.9;2.8;;;;;;;4.98;100;94457.48;;;;
2021/05/14 03:46:25;;;;;;;4.9;2.8;;;;;;;4.98;100;94457.48;;;;
2021/05/14 03:47:27;;;;;;;4.9;2.8;;;;;;;4.98;100;94457.48;;;;
2021/05/14 03:48:27;;;;;;;4.9;2.8;;;;;;;4.98;100;94457.48;;;;
2021/05/14 03:49:28;;;;;;;3.55;2.15;;;;;;;4.95;100;94462.34;;;;
2021/05/14 03:50:31;;;;;;;3.55;2.15;;;;;;;4.95;100;94462.34;;;;
2021/05/14 03:51:32;;;;;;;3.55;2.15;;;;;;;4.95;100;94462.34;;;;
2021/05/14 03:52:35;;;;;;;3.55;2.15;;;;;;;4.95;100;94462.34;;;;
2021/05/14 03:53:35;;;;;;;3.55;2.15;;;;;;;4.95;100;94462.34;;;;
2021/05/14 03:54:36;;;;;;;3.55;2.15;;;;;;;4.95;100;94462.34;;;;
2021/05/14 03:55:37;;;;;;;3.55;2.15;;;;;;;4.95;100;94462.34;;;;
2021/05/14 03:56:38;;;;;;;3.55;2.15;;;;;;;4.95;100;94462.34;;;;
2021/05/14 03:57:39;;;;;;;3.55;2.15;;;;;;;4.95;100;94462.34;;;;
2021/05/14 03:58:39;;;;;;;3.55;2.15;;;;;;;4.95;100;94462.34;;;;
2021/05/14 03:59:40;;;;;;;4.95;2.25;;;;;;;4.91;100;94468.75;;;;
2021/05/14 04:00:41;;;;;;;4.95;2.25;;;;;;;4.91;100;94468.75;;;;
2021/05/14 04:01:41;;;;;;;4.95;2.25;;;;;;;4.91;100;94468.75;;;;
2021/05/14 04:02:42;;;;;;;4.95;2.25;;;;;;;4.91;100;94468.75;;;;
2021/05/14 04:03:42;;;;;;;4.95;2.25;;;;;;;4.91;100;94468.75;;;;
2021/05/14 04:04:43;;;;;;;4.95;2.25;;;;;;;4.91;100;94468.75;;;;
2021/05/14 04:05:44;;;;;;;4.95;2.25;;;;;;;4.91;100;94468.75;;;;
2021/05/14 04:06:44;;;;;;;4.95;2.25;;;;;;;4.91;100;94468.75;;;;
2021/05/14 04:07:45;;;;;;;4.95;2.25;;;;;;;4.91;100;94468.75;;;;
2021/05/14 04:08:45;;;;;;;4.95;2.25;;;;;;;4.91;100;94468.75;;;;
2021/05/14 04:09:51;;;;;;;4.95;2.25;;;;;;;4.91;100;94468.75;;;;
2021/05/14 04:11:16;;;;;;;2.55;2.35;;;;;;;4.77;100;94470.84;;;;
2021/05/14 04:14:28;;;;;;;2.55;2.35;;;;;;;4.77;100;94470.84;;;;
2021/05/14 04:15:29;;;;;;;2.55;2.35;;;;;;;4.77;100;94470.84;;;;
2021/05/14 04:16:30;;;;;;;2.55;2.35;;;;;;;4.77;100;94470.84;;;;
2021/05/14 04:17:30;;;;;;;2.55;2.35;;;;;;;4.77;100;94470.84;;;;
2021/05/14 04:18:31;;;;;;;2.55;2.35;;;;;;;4.77;100;94470.84;;;;
2021/05/14 04:19:31;;;;;;;2.55;2.35;;;;;;;4.77;100;94470.84;;;;
2021/05/14 04:20:33;;;;;;;2.55;2.35;;;;;;;4.77;100;94470.84;;;;
2021/05/14 04:21:33;;;;;;;3.5;2.3;;;;;;;4.64;100;94462.05;;;;
2021/05/14 04:22:34;;;;;;;3.5;2.3;;;;;;;4.64;100;94462.05;;;;
2021/05/14 04:23:34;;;;;;;3.5;2.3;;;;;;;4.64;100;94462.05;;;;
2021/05/14 04:24:35;;;;;;;3.5;2.3;;;;;;;4.64;100;94462.05;;;;
2021/05/14 04:25:37;;;;;;;3.5;2.3;;;;;;;4.64;100;94462.05;;;;
2021/05/14 04:26:38;;;;;;;3.5;2.3;;;;;;;4.64;100;94462.05;;;;
2021/05/14 04:27:39;;;;;;;3.5;2.3;;;;;;;4.64;100;94462.05;;;;
2021/05/14 04:28:39;;;;;;;3.5;2.3;;;;;;;4.64;100;94462.05;;;;
2021/05/14 04:29:40;;;;;;;3.5;2.3;;;;;;;4.64;100;94462.05;;;;
2021/05/14 04:30:40;;;;;;;3.5;2.3;;;;;;;4.64;100;94462.05;;;;
2021/05/14 04:31:42;;;;;;;2.5;2.3;;;;;;;4.58;100;94467.33;;;;
2021/05/14 04:32:44;;;;;;;2.5;2.3;;;;;;;4.58;100;94467.33;;;;
2021/05/14 04:33:44;;;;;;;2.5;2.3;;;;;;;4.58;100;94467.33;;;;
2021/05/14 04:34:45;;;;;;;2.5;2.3;;;;;;;4.58;100;94467.33;;;;
2021/05/14 04:35:45;;;;;;;2.5;2.3;;;;;;;4.58;100;94467.33;;;;
2021/05/14 04:36:47;;;;;;;2.5;2.3;;;;;;;4.58;100;94467.33;;;;
2021/05/14 04:37:47;;;;;;;2.5;2.3;;;;;;;4.58;100;94467.33;;;;
2021/05/14 04:38:48;;;;;;;2.5;2.3;;;;;;;4.58;100;94467.33;;;;
2021/05/14 04:39:48;;;;;;;2.5;2.3;;;;;;;4.58;100;94467.33;;;;
2021/05/14 04:40:49;;;;;;;2.5;2.3;;;;;;;4.58;100;94467.33;;;;
2021/05/14 04:41:49;;;;;;;2.5;2.3;;;;;;;4.58;100;94467.33;;;;
2021/05/14 04:42:50;;;;;;;4.349999;2.85;;;;;;;4.62;100;94459.18;;;;
2021/05/14 04:43:50;;;;;;;4.349999;2.85;;;;;;;4.62;100;94459.18;;;;
2021/05/14 04:44:51;;;;;;;4.349999;2.85;;;;;;;4.62;100;94459.18;;;;
2021/05/14 04:45:51;;;;;;;4.349999;2.85;;;;;;;4.62;100;94459.18;;;;
2021/05/14 04:46:52;;;;;;;4.349999;2.85;;;;;;;4.62;100;94459.18;;;;
2021/05/14 04:47:52;;;;;;;4.349999;2.85;;;;;;;4.62;100;94459.18;;;;
2021/05/14 04:48:53;;;;;;;4.349999;2.85;;;;;;;4.62;100;94459.18;;;;
2021/05/14 04:49:54;;;;;;;4.349999;2.85;;;;;;;4.62;100;94459.18;;;;
2021/05/14 04:50:55;;;;;;;4.349999;2.85;;;;;;;4.62;100;94459.18;;;;
2021/05/14 04:51:56;;;;;;;4.349999;2.85;;;;;;;4.62;100;94459.18;;;;
2021/05/14 04:52:56;;;;;;;4.8;3.55;;;;;;;4.79;100;94453.14;;;;
2021/05/14 04:54:01;;;;;;;4.8;3.55;;;;;;;4.79;100;94453.14;;;;
2021/05/14 04:55:04;;;;;;;4.8;3.55;;;;;;;4.79;100;94453.14;;;;
2021/05/14 04:56:05;;;;;;;4.8;3.55;;;;;;;4.79;100;94453.14;;;;
2021/05/14 04:57:06;;;;;;;4.8;3.55;;;;;;;4.79;100;94453.14;;;;
2021/05/14 04:58:06;;;;;;;4.8;3.55;;;;;;;4.79;100;94453.14;;;;
2021/05/14 04:59:07;;;;;;;4.8;3.55;;;;;;;4.79;100;94453.14;;;;
2021/05/14 05:00:08;;;;;;;4.8;3.55;;;;;;;4.79;100;94453.14;;;;
2021/05/14 05:01:09;;;;;;;4.8;3.55;;;;;;;4.79;100;94453.14;;;;
2021/05/14 05:02:13;;;;;;;4.8;3.55;;;;;;;4.79;100;94453.14;;;;
2021/05/14 05:03:14;;;;;;;4.8;3.55;;;;;;;4.79;100;94453.14;;;;
2021/05/14 05:04:15;;;;;;;4.649999;3.3;;;;;;;5.08;100;94448.83;;;;
2021/05/14 05:05:16;;;;;;;4.649999;3.3;;;;;;;5.08;100;94448.83;;;;
2021/05/14 05:06:17;;;;;;;4.649999;3.3;;;;;;;5.08;100;94448.83;;;;
2021/05/14 05:07:17;;;;;;;4.649999;3.3;;;;;;;5.08;100;94448.83;;;;
2021/05/14 05:08:18;;;;;;;4.649999;3.3;;;;;;;5.08;100;94448.83;;;;
2021/05/14 05:09:18;;;;;;;4.649999;3.3;;;;;;;5.08;100;94448.83;;;;
2021/05/14 05:10:20;;;;;;;4.649999;3.3;;;;;;;5.08;100;94448.83;;;;
2021/05/14 05:11:21;;;;;;;4.649999;3.3;;;;;;;5.08;100;94448.83;;;;
2021/05/14 05:12:21;;;;;;;4.649999;3.3;;;;;;;5.08;100;94448.83;;;;
2021/05/14 05:13:22;;;;;;;4.649999;3.3;;;;;;;5.08;100;94448.83;;;;
2021/05/14 05:14:23;;;;;;;4.900001;4;;;;;;;5.51;100;94463.03;;;;
2021/05/14 05:15:24;;;;;;;4.900001;4;;;;;;;5.51;100;94463.03;;;;
2021/05/14 05:16:24;;;;;;;4.900001;4;;;;;;;5.51;100;94463.03;;;;
2021/05/14 05:17:25;;;;;;;4.900001;4;;;;;;;5.51;100;94463.03;;;;
2021/05/14 05:18:25;;;;;;;4.900001;4;;;;;;;5.51;100;94463.03;;;;
2021/05/14 05:19:26;;;;;;;4.900001;4;;;;;;;5.51;100;94463.03;;;;
2021/05/14 05:20:26;;;;;;;4.900001;4;;;;;;;5.51;100;94463.03;;;;
2021/05/14 05:21:27;;;;;;;4.900001;4;;;;;;;5.51;100;94463.03;;;;
2021/05/14 05:22:27;;;;;;;4.900001;4;;;;;;;5.51;100;94463.03;;;;
2021/05/14 05:23:28;;;;;;;4.900001;4;;;;;;;5.51;100;94463.03;;;;
2021/05/14 05:24:29;;;;;;;4.900001;4;;;;;;;5.51;100;94463.03;;;;
2021/05/14 05:25:29;;;;;;;3.8;3.35;;;;;;;6.04;100;94470.71;;;;
2021/05/14 05:26:30;;;;;;;3.8;3.35;;;;;;;6.04;100;94470.71;;;;
2021/05/14 05:27:30;;;;;;;3.8;3.35;;;;;;;6.04;100;94470.71;;;;
2021/05/14 05:28:32;;;;;;;3.8;3.35;;;;;;;6.04;100;94470.71;;;;
2021/05/14 05:29:32;;;;;;;3.8;3.35;;;;;;;6.04;100;94470.71;;;;
2021/05/14 05:30:34;;;;;;;3.8;3.35;;;;;;;6.04;100;94470.71;;;;
2021/05/14 05:31:35;;;;;;;3.8;3.35;;;;;;;6.04;100;94470.71;;;;
2021/05/14 05:32:35;;;;;;;3.8;3.35;;;;;;;6.04;100;94470.71;;;;
2021/05/14 05:33:36;;;;;;;3.8;3.35;;;;;;;6.04;100;94470.71;;;;
2021/05/14 05:34:37;;;;;;;3.8;3.35;;;;;;;6.04;100;94470.71;;;;
2021/05/14 05:35:38;;;;;;;6.8;3.2;;;;;;;6.55;100;94476.44;;;;
2021/05/14 05:36:38;;;;;;;6.8;3.2;;;;;;;6.55;100;94476.44;;;;
2021/05/14 05:37:39;;;;;;;6.8;3.2;;;;;;;6.55;100;94476.44;;;;
2021/05/14 05:38:39;;;;;;;6.8;3.2;;;;;;;6.55;100;94476.44;;;;
2021/05/14 05:39:40;;;;;;;6.8;3.2;;;;;;;6.55;100;94476.44;;;;
2021/05/14 05:40:40;;;;;;;6.8;3.2;;;;;;;6.55;100;94476.44;;;;
2021/05/14 05:41:41;;;;;;;6.8;3.2;;;;;;;6.55;100;94476.44;;;;
2021/05/14 05:42:42;;;;;;;6.8;3.2;;;;;;;6.55;100;94476.44;;;;
2021/05/14 05:43:42;;;;;;;6.8;3.2;;;;;;;6.55;100;94476.44;;;;
2021/05/14 05:44:43;;;;;;;6.8;3.2;;;;;;;6.55;100;94476.44;;;;
2021/05/14 05:45:43;;;;;;;6.8;3.2;;;;;;;6.55;100;94476.44;;;;
2021/05/14 05:46:44;;;;;;;3;2.5;;;;;;;7;100;94480.59;;;;
2021/05/14 05:47:45;;;;;;;3;2.5;;;;;;;7;100;94480.59;;;;
2021/05/14 05:48:46;;;;;;;3;2.5;;;;;;;7;100;94480.59;;;;
2021/05/14 05:49:47;;;;;;;3;2.5;;;;;;;7;100;94480.59;;;;
2021/05/14 05:50:48;;;;;;;3;2.5;;;;;;;7;100;94480.59;;;;
2021/05/14 05:51:49;;;;;;;3;2.5;;;;;;;7;100;94480.59;;;;
2021/05/14 05:52:53;;;;;;;3;2.5;;;;;;;7;100;94480.59;;;;
2021/05/14 05:53:54;;;;;;;3;2.5;;;;;;;7;100;94480.59;;;;
2021/05/14 05:54:54;;;;;;;3;2.5;;;;;;;7;100;94480.59;;;;
2021/05/14 05:55:55;;;;;;;3;2.5;;;;;;;7;100;94480.59;;;;
2021/05/14 05:56:57;;;;;;;2.4;2.1;;;;;;;7.52;100;94487.8;;;;
2021/05/14 05:57:58;;;;;;;2.4;2.1;;;;;;;7.52;100;94487.8;;;;
2021/05/14 05:59:06;;;;;;;2.4;2.1;;;;;;;7.52;100;94487.8;;;;
2021/05/14 06:00:06;;;;;;;2.4;2.1;;;;;;;7.52;100;94487.8;;;;
2021/05/14 06:01:08;;;;;;;2.4;2.1;;;;;;;7.52;100;94487.8;;;;
2021/05/14 06:02:08;;;;;;;2.4;2.1;;;;;;;7.52;100;94487.8;;;;
2021/05/14 06:03:10;;;;;;;2.4;2.1;;;;;;;7.52;100;94487.8;;;;
2021/05/14 06:04:11;;;;;;;2.4;2.1;;;;;;;7.52;100;94487.8;;;;
2021/05/14 06:05:14;;;;;;;2.4;2.1;;;;;;;7.52;100;94487.8;;;;
2021/05/14 06:06:14;;;;;;;2.4;2.1;;;;;;;7.52;100;94487.8;;;;
2021/05/14 06:07:15;;;;;;;2.4;2.1;;;;;;;7.52;100;94487.8;;;;
2021/05/14 06:08:15;;;;;;;2.05;1.65;;;;;;;8.11;100;94484.16;;;;
2021/05/14 06:09:16;;;;;;;2.05;1.65;;;;;;;8.11;100;94484.16;;;;
2021/05/14 06:10:17;;;;;;;2.05;1.65;;;;;;;8.11;100;94484.16;;;;
2021/05/14 06:11:17;;;;;;;2.05;1.65;;;;;;;8.11;100;94484.16;;;;
2021/05/14 06:12:18;;;;;;;2.05;1.65;;;;;;;8.11;100;94484.16;;;;
2021/05/14 06:13:19;;;;;;;2.05;1.65;;;;;;;8.11;100;94484.16;;;;
2021/05/14 06:14:20;;;;;;;2.05;1.65;;;;;;;8.11;100;94484.16;;;;
2021/05/14 06:15:20;;;;;;;2.05;1.65;;;;;;;8.11;100;94484.16;;;;
2021/05/14 06:16:21;;;;;;;2.05;1.65;;;;;;;8.11;100;94484.16;;;;
2021/05/14 06:17:22;;;;;;;2.05;1.65;;;;;;;8.11;100;94484.16;;;;
2021/05/14 06:18:23;;;;;;;1.6;1.5;;;;;;;8.93;100;94484.44;;;;
2021/05/14 06:19:27;;;;;;;1.6;1.5;;;;;;;8.93;100;94484.44;;;;
2021/05/14 06:20:29;;;;;;;1.6;1.5;;;;;;;8.93;100;94484.44;;;;
2021/05/14 06:21:30;;;;;;;1.6;1.5;;;;;;;8.93;100;94484.44;;;;
2021/05/14 06:22:31;;;;;;;1.6;1.5;;;;;;;8.93;100;94484.44;;;;
2021/05/14 06:23:31;;;;;;;1.6;1.5;;;;;;;8.93;100;94484.44;;;;